Time;durP1;ratioP1;P1;durP2;ratioP2;P2;SDS_P1;SDS_P2;PMS_P1;PMS_P2;Temp;Humidity;BMP_temperature;BMP_pressure;BME280_temperature;BME280_humidity;BME280_pressure;Samples;Min_cycle;Max_cycle;Signal;HPM_P1;HPM_P2
2021/01/18 00:00:20;;;;;;;8.47;6.60;;;;;;;;;;5057421;28;20423;-68
2021/01/18 00:02:46;;;;;;;10.70;8.40;;;;;;;;;;5072513;28;20475;-68
2021/01/18 00:05:12;;;;;;;11.17;8.20;;;;;;;;;;5072104;28;20447;-68
2021/01/18 00:07:51;;;;;;;9.30;7.03;;;;;;;;;;5073644;28;20771;-68
2021/01/18 00:10:21;;;;;;;9.80;6.73;;;;;;;;;;5072231;28;20908;-68
2021/01/18 00:12:48;;;;;;;13.23;7.97;;;;;;;;;;5073322;28;20871;-68
2021/01/18 00:15:15;;;;;;;8.73;6.30;;;;;;;;;;5071026;28;20469;-68
2021/01/18 00:17:41;;;;;;;9.07;6.87;;;;;;;;;;5073470;28;20908;-68
2021/01/18 00:20:08;;;;;;;9.90;6.47;;;;;;;;;;5072445;28;20518;-68
2021/01/18 00:22:36;;;;;;;9.47;6.93;;;;;;;;;;5073225;28;20972;-68
2021/01/18 00:25:02;;;;;;;6.37;5.17;;;;;;;;;;5070802;28;20466;-68
2021/01/18 00:27:28;;;;;;;9.23;6.90;;;;;;;;;;5053070;28;20401;-68
2021/01/18 00:29:54;;;;;;;8.17;6.53;;;;;;;;;;5053113;28;20450;-68
2021/01/18 00:32:23;;;;;;;9.90;6.00;;;;;;;;;;5053065;28;20470;-68
2021/01/18 00:34:49;;;;;;;9.70;6.77;;;;;;;;;;5052827;28;20431;-68
2021/01/18 00:37:15;;;;;;;6.90;5.30;;;;;;;;;;5072525;28;20455;-68
2021/01/18 00:39:43;;;;;;;8.73;5.70;;;;;;;;;;5073514;28;20990;-68
2021/01/18 00:42:09;;;;;;;8.50;6.10;;;;;;;;;;5053798;28;20424;-68
2021/01/18 00:44:35;;;;;;;7.47;6.00;;;;;;;;;;5052804;28;20457;-69
2021/01/18 00:47:02;;;;;;;6.47;5.30;;;;;;;;;;5069964;28;20476;-68
2021/01/18 00:49:28;;;;;;;7.30;6.20;;;;;;;;;;5072806;28;20428;-69
2021/01/18 00:51:54;;;;;;;6.23;5.13;;;;;;;;;;5070689;28;20521;-69
2021/01/18 00:54:19;;;;;;;5.40;4.53;;;;;;;;;;5073133;28;20462;-68
2021/01/18 00:56:50;;;;;;;8.03;6.23;;;;;;;;;;5071927;28;20429;-68
2021/01/18 00:59:16;;;;;;;7.43;5.50;;;;;;;;;;5072650;28;20509;-68
2021/01/18 01:01:42;;;;;;;8.70;5.80;;;;;;;;;;5070690;28;20835;-68
2021/01/18 01:04:08;;;;;;;5.80;4.50;;;;;;;;;;5072705;28;20486;-68
2021/01/18 01:06:34;;;;;;;7.80;5.33;;;;;;;;;;5059646;28;20787;-68
2021/01/18 01:09:00;;;;;;;9.77;5.70;;;;;;;;;;5066274;28;20458;-68
2021/01/18 01:11:26;;;;;;;6.37;5.23;;;;;;;;;;5071662;28;20485;-68
2021/01/18 01:13:52;;;;;;;5.93;4.83;;;;;;;;;;5072682;28;20398;-68
2021/01/18 01:16:18;;;;;;;7.00;4.47;;;;;;;;;;5071619;28;20910;-68
2021/01/18 01:18:44;;;;;;;7.00;5.20;;;;;;;;;;5076344;28;20428;-68
2021/01/18 01:21:10;;;;;;;8.60;5.40;;;;;;;;;;5066934;28;20430;-68
2021/01/18 01:23:36;;;;;;;6.27;5.00;;;;;;;;;;5056302;28;20474;-68
2021/01/18 01:26:02;;;;;;;7.83;5.00;;;;;;;;;;5056183;28;20964;-68
2021/01/18 01:28:28;;;;;;;5.73;5.17;;;;;;;;;;5056364;28;20472;-68
2021/01/18 01:30:54;;;;;;;7.20;5.43;;;;;;;;;;5056393;28;20425;-68
2021/01/18 01:33:20;;;;;;;5.50;4.47;;;;;;;;;;5056149;28;20402;-68
2021/01/18 01:35:46;;;;;;;6.70;5.30;;;;;;;;;;5060542;28;20432;-68
2021/01/18 01:38:12;;;;;;;7.30;5.07;;;;;;;;;;5075918;28;20423;-68
2021/01/18 01:40:38;;;;;;;6.83;5.17;;;;;;;;;;5071880;28;20801;-69
2021/01/18 01:43:07;;;;;;;6.20;4.47;;;;;;;;;;5054802;28;20500;-68
2021/01/18 01:45:33;;;;;;;4.83;4.30;;;;;;;;;;5058051;28;20538;-68
2021/01/18 01:48:00;;;;;;;8.40;5.63;;;;;;;;;;5075904;28;20495;-68
2021/01/18 01:50:27;;;;;;;5.57;4.40;;;;;;;;;;5073584;28;20400;-68
2021/01/18 01:52:56;;;;;;;5.90;4.40;;;;;;;;;;5055796;28;20400;-68
2021/01/18 01:55:28;;;;;;;7.30;4.93;;;;;;;;;;5063418;28;20415;-67
2021/01/18 01:57:54;;;;;;;5.23;4.70;;;;;;;;;;5055332;28;20875;-68
2021/01/18 02:00:21;;;;;;;6.27;4.70;;;;;;;;;;5055723;28;20399;-68
2021/01/18 02:02:47;;;;;;;5.90;4.90;;;;;;;;;;5055554;28;20399;-68
2021/01/18 02:05:14;;;;;;;7.63;5.07;;;;;;;;;;5057388;28;20463;-68
2021/01/18 02:07:41;;;;;;;5.20;3.63;;;;;;;;;;5055795;28;20427;-68
2021/01/18 02:10:07;;;;;;;5.60;4.07;;;;;;;;;;5061406;28;20429;-68
2021/01/18 02:12:33;;;;;;;6.23;4.07;;;;;;;;;;5074386;28;20434;-68
2021/01/18 02:15:05;;;;;;;6.50;4.50;;;;;;;;;;5074358;28;20433;-68
2021/01/18 02:17:51;;;;;;;4.97;3.87;;;;;;;;;;5056888;28;20424;-68
2021/01/18 02:20:30;;;;;;;4.77;4.10;;;;;;;;;;5055218;28;20412;-68
2021/01/18 02:23:13;;;;;;;6.83;4.40;;;;;;;;;;5055259;28;20421;-68
2021/01/18 02:25:41;;;;;;;6.93;4.20;;;;;;;;;;5053687;28;20448;-68
2021/01/18 02:28:26;;;;;;;5.93;4.43;;;;;;;;;;5054851;28;20424;-68
2021/01/18 02:31:11;;;;;;;5.30;4.67;;;;;;;;;;5063315;28;20423;-68
2021/01/18 02:33:52;;;;;;;7.33;5.33;;;;;;;;;;5074135;28;20407;-69
2021/01/18 02:36:37;;;;;;;5.70;4.37;;;;;;;;;;5073756;28;20402;-68
2021/01/18 02:39:06;;;;;;;6.10;4.77;;;;;;;;;;5075261;28;20453;-68
2021/01/18 02:41:41;;;;;;;4.67;4.00;;;;;;;;;;5074192;28;20457;-68
2021/01/18 02:44:08;;;;;;;4.83;4.00;;;;;;;;;;5074880;28;20455;-68
2021/01/18 02:46:36;;;;;;;5.30;4.30;;;;;;;;;;5070743;28;20420;-69
2021/01/18 02:49:03;;;;;;;9.43;5.87;;;;;;;;;;5054702;28;20422;-68
2021/01/18 02:51:32;;;;;;;6.63;4.87;;;;;;;;;;5057733;28;20440;-68
2021/01/18 02:53:59;;;;;;;10.10;6.60;;;;;;;;;;5074708;28;20414;-68
2021/01/18 02:56:26;;;;;;;7.37;5.73;;;;;;;;;;5073933;28;20946;-68
2021/01/18 02:58:53;;;;;;;6.47;5.47;;;;;;;;;;5074868;28;20951;-68
2021/01/18 03:01:38;;;;;;;6.73;5.40;;;;;;;;;;5064224;28;20425;-68
2021/01/18 03:04:04;;;;;;;8.43;6.47;;;;;;;;;;5054475;28;20459;-68
2021/01/18 03:06:30;;;;;;;10.77;6.90;;;;;;;;;;5054387;28;21046;-68
2021/01/18 03:08:59;;;;;;;8.50;6.20;;;;;;;;;;5054553;28;20429;-68
2021/01/18 03:11:32;;;;;;;9.20;6.00;;;;;;;;;;5055282;28;20431;-68
2021/01/18 03:14:02;;;;;;;7.40;6.60;;;;;;;;;;5074449;28;20438;-68
2021/01/18 03:16:31;;;;;;;7.77;7.03;;;;;;;;;;5074413;28;20383;-68
2021/01/18 03:18:59;;;;;;;10.53;6.47;;;;;;;;;;5073431;28;20467;-68
2021/01/18 03:21:25;;;;;;;12.47;6.20;;;;;;;;;;5074558;28;20393;-68
2021/01/18 03:23:51;;;;;;;7.40;6.03;;;;;;;;;;5073139;28;20793;-68
2021/01/18 03:26:17;;;;;;;8.90;6.60;;;;;;;;;;5074189;28;20405;-68
2021/01/18 03:28:43;;;;;;;8.80;6.20;;;;;;;;;;5072849;28;20976;-68
2021/01/18 03:31:09;;;;;;;7.73;6.03;;;;;;;;;;5073946;28;20401;-68
2021/01/18 03:33:35;;;;;;;7.30;5.47;;;;;;;;;;5059578;28;20433;-68
2021/01/18 03:36:01;;;;;;;7.97;5.10;;;;;;;;;;5053875;28;20404;-68
2021/01/18 03:38:27;;;;;;;8.53;5.73;;;;;;;;;;5065740;28;20455;-68
2021/01/18 03:40:53;;;;;;;10.90;6.13;;;;;;;;;;5073294;28;20403;-68
2021/01/18 03:43:20;;;;;;;8.33;5.77;;;;;;;;;;5072921;28;20523;-68
2021/01/18 03:45:47;;;;;;;8.83;5.13;;;;;;;;;;5072887;28;20457;-68
2021/01/18 03:48:13;;;;;;;10.10;5.87;;;;;;;;;;5072524;28;20433;-68
2021/01/18 03:50:40;;;;;;;7.70;5.20;;;;;;;;;;5073648;28;20412;-68
2021/01/18 03:53:06;;;;;;;7.43;5.73;;;;;;;;;;5064117;28;20420;-68
2021/01/18 03:55:32;;;;;;;7.77;5.80;;;;;;;;;;5053659;28;20401;-68
2021/01/18 03:57:58;;;;;;;10.33;6.13;;;;;;;;;;5053555;28;20450;-68
2021/01/18 04:00:29;;;;;;;10.40;5.90;;;;;;;;;;5053695;28;20398;-68
2021/01/18 04:02:55;;;;;;;9.77;5.60;;;;;;;;;;5061523;28;20430;-68
2021/01/18 04:05:22;;;;;;;8.93;5.70;;;;;;;;;;5077137;28;20451;-68
2021/01/18 04:07:48;;;;;;;8.80;5.50;;;;;;;;;;5068579;28;20507;-68
2021/01/18 04:10:16;;;;;;;11.33;6.77;;;;;;;;;;5066844;28;20416;-68
2021/01/18 04:12:43;;;;;;;9.63;6.10;;;;;;;;;;5055700;28;20432;-68
2021/01/18 04:15:10;;;;;;;9.20;5.80;;;;;;;;;;5054985;28;20420;-68
2021/01/18 04:17:36;;;;;;;7.90;5.70;;;;;;;;;;5057619;28;20451;-68
2021/01/18 04:20:03;;;;;;;8.70;5.87;;;;;;;;;;5073059;28;20429;-68
2021/01/18 04:22:29;;;;;;;10.20;5.30;;;;;;;;;;5071319;28;20476;-68
2021/01/18 04:24:55;;;;;;;9.10;5.57;;;;;;;;;;5053964;28;20551;-68
2021/01/18 04:27:21;;;;;;;8.13;5.30;;;;;;;;;;5054895;28;20405;-68
2021/01/18 04:29:47;;;;;;;8.53;4.43;;;;;;;;;;5074821;28;20430;-68
2021/01/18 04:32:13;;;;;;;9.43;5.17;;;;;;;;;;5072959;28;20830;-68
2021/01/18 04:34:39;;;;;;;8.03;4.43;;;;;;;;;;5072722;28;20462;-68
2021/01/18 04:37:05;;;;;;;8.63;5.80;;;;;;;;;;5073532;28;20440;-68
2021/01/18 04:39:31;;;;;;;8.90;5.73;;;;;;;;;;5053939;28;20460;-68
2021/01/18 04:42:00;;;;;;;8.77;5.60;;;;;;;;;;5053189;28;20401;-68
2021/01/18 04:44:26;;;;;;;8.40;4.97;;;;;;;;;;5053111;28;20466;-68
2021/01/18 04:46:53;;;;;;;7.20;4.90;;;;;;;;;;5068813;28;20422;-68
2021/01/18 04:49:20;;;;;;;6.67;5.10;;;;;;;;;;5055660;28;20448;-68
2021/01/18 04:51:49;;;;;;;9.00;5.23;;;;;;;;;;5055249;28;21222;-68
2021/01/18 04:54:16;;;;;;;11.03;5.40;;;;;;;;;;5076441;28;20836;-68
2021/01/18 04:56:57;;;;;;;9.93;5.33;;;;;;;;;;5077267;28;20444;-68
2021/01/18 04:59:28;;;;;;;7.97;4.50;;;;;;;;;;5075887;28;20539;-68
2021/01/18 05:02:06;;;;;;;6.43;4.93;;;;;;;;;;5077170;28;20431;-68
2021/01/18 05:04:37;;;;;;;5.70;5.10;;;;;;;;;;5074668;28;20788;-68
2021/01/18 05:07:13;;;;;;;8.17;5.03;;;;;;;;;;5076963;28;20761;-68
2021/01/18 05:09:48;;;;;;;8.80;5.03;;;;;;;;;;5058178;28;20910;-68
2021/01/18 05:12:14;;;;;;;9.90;5.17;;;;;;;;;;5056796;28;20386;-68
2021/01/18 05:14:41;;;;;;;7.83;4.73;;;;;;;;;;5074286;28;20431;-68
2021/01/18 05:17:08;;;;;;;10.87;6.20;;;;;;;;;;5076565;28;20438;-68
2021/01/18 05:19:34;;;;;;;12.03;4.93;;;;;;;;;;5075515;28;20463;-68
2021/01/18 05:22:00;;;;;;;6.97;4.43;;;;;;;;;;5076438;28;20403;-68
2021/01/18 05:24:26;;;;;;;8.23;4.83;;;;;;;;;;5075497;28;20465;-68
2021/01/18 05:27:01;;;;;;;8.67;4.93;;;;;;;;;;5075233;28;20788;-68
2021/01/18 05:29:35;;;;;;;8.87;4.93;;;;;;;;;;5075216;28;20475;-68
2021/01/18 05:32:01;;;;;;;6.40;4.33;;;;;;;;;;5076308;28;20544;-68
2021/01/18 05:34:28;;;;;;;8.67;4.60;;;;;;;;;;5075385;28;20428;-68
2021/01/18 05:36:54;;;;;;;6.83;4.73;;;;;;;;;;5076399;28;20405;-68
2021/01/18 05:39:25;;;;;;;8.27;5.30;;;;;;;;;;5061127;28;20466;-68
2021/01/18 05:41:51;;;;;;;9.23;5.20;;;;;;;;;;5056322;28;20413;-68
2021/01/18 05:44:18;;;;;;;6.07;4.90;;;;;;;;;;5069365;28;20813;-68
2021/01/18 05:46:46;;;;;;;8.40;6.23;;;;;;;;;;5074999;28;20411;-68
2021/01/18 05:49:14;;;;;;;7.37;4.83;;;;;;;;;;5075202;28;20439;-68
2021/01/18 05:51:41;;;;;;;9.50;6.07;;;;;;;;;;5076170;28;20454;-68
2021/01/18 05:54:10;;;;;;;10.60;5.77;;;;;;;;;;5063558;28;20510;-69
2021/01/18 05:56:41;;;;;;;7.70;5.07;;;;;;;;;;5055759;28;20425;-68
2021/01/18 05:59:16;;;;;;;10.47;4.53;;;;;;;;;;5065556;28;20462;-68
2021/01/18 06:01:42;;;;;;;11.23;5.73;;;;;;;;;;5056090;28;20400;-68
2021/01/18 06:04:31;;;;;;;6.37;4.17;;;;;;;;;;5055134;28;20485;-68
2021/01/18 06:07:04;;;;;;;7.60;4.77;;;;;;;;;;5050138;28;20415;-69
2021/01/18 06:09:46;;;;;;;7.27;5.00;;;;;;;;;;5069579;28;20443;-68
2021/01/18 06:12:24;;;;;;;6.77;5.13;;;;;;;;;;5075758;28;20388;-68
2021/01/18 06:15:09;;;;;;;9.43;5.40;;;;;;;;;;5074788;28;20449;-68
2021/01/18 06:17:56;;;;;;;6.60;4.90;;;;;;;;;;5075283;28;20414;-68
2021/01/18 06:20:23;;;;;;;13.43;5.10;;;;;;;;;;5075070;28;20419;-68
2021/01/18 06:22:50;;;;;;;7.60;4.37;;;;;;;;;;5074584;28;20412;-68
2021/01/18 06:25:16;;;;;;;10.20;5.17;;;;;;;;;;5055360;28;20460;-68
2021/01/18 06:27:42;;;;;;;6.37;4.93;;;;;;;;;;5056607;28;20768;-69
2021/01/18 06:30:28;;;;;;;8.40;4.77;;;;;;;;;;5075189;28;20745;-68
2021/01/18 06:33:15;;;;;;;7.00;4.87;;;;;;;;;;5073193;28;20507;-68
2021/01/18 06:35:41;;;;;;;10.73;4.87;;;;;;;;;;5075001;28;20459;-68
2021/01/18 06:38:08;;;;;;;10.90;5.60;;;;;;;;;;5074013;28;20448;-68
2021/01/18 06:40:34;;;;;;;8.47;5.53;;;;;;;;;;5073976;28;20419;-68
2021/01/18 06:43:01;;;;;;;10.73;5.00;;;;;;;;;;5070728;28;20470;-68
2021/01/18 06:45:46;;;;;;;9.60;6.50;;;;;;;;;;5054827;28;20457;-68
2021/01/18 06:48:12;;;;;;;10.53;4.80;;;;;;;;;;5055923;28;20515;-68
2021/01/18 06:50:39;;;;;;;8.43;5.40;;;;;;;;;;5074772;28;20495;-68
2021/01/18 06:53:11;;;;;;;6.87;4.60;;;;;;;;;;5074831;28;20410;-68
2021/01/18 06:55:39;;;;;;;8.00;6.10;;;;;;;;;;5074513;28;20416;-68
2021/01/18 06:58:32;;;;;;;9.20;5.17;;;;;;;;;;5074551;28;20450;-68
2021/01/18 07:01:00;;;;;;;10.07;5.17;;;;;;;;;;5074786;28;20436;-68
2021/01/18 07:03:39;;;;;;;9.13;6.10;;;;;;;;;;5073537;28;20901;-68
2021/01/18 07:06:29;;;;;;;11.27;5.57;;;;;;;;;;5074444;28;20457;-68
2021/01/18 07:08:57;;;;;;;7.47;5.00;;;;;;;;;;5073514;28;20451;-68
2021/01/18 07:11:23;;;;;;;5.93;4.63;;;;;;;;;;5074605;28;20416;-68
2021/01/18 07:13:50;;;;;;;7.03;4.77;;;;;;;;;;5072797;28;20431;-68
2021/01/18 07:16:17;;;;;;;6.93;4.93;;;;;;;;;;5073951;28;21016;-68
2021/01/18 07:18:46;;;;;;;8.23;4.97;;;;;;;;;;5061550;28;20483;-68
2021/01/18 07:21:17;;;;;;;13.03;5.57;;;;;;;;;;5074262;28;20897;-68
2021/01/18 07:23:47;;;;;;;9.20;5.00;;;;;;;;;;5070456;28;20415;-68
2021/01/18 07:26:19;;;;;;;10.73;5.87;;;;;;;;;;5054055;28;20845;-68
2021/01/18 07:28:53;;;;;;;11.80;5.53;;;;;;;;;;5057025;28;20845;-68
2021/01/18 07:31:19;;;;;;;6.47;5.10;;;;;;;;;;5074040;28;20427;-68
2021/01/18 07:33:46;;;;;;;9.17;6.00;;;;;;;;;;5071394;28;20419;-67
2021/01/18 07:36:21;;;;;;;9.83;7.50;;;;;;;;;;5072610;28;20850;-70
2021/01/18 07:38:47;;;;;;;10.43;5.53;;;;;;;;;;5071823;28;20485;-68
2021/01/18 07:41:14;;;;;;;12.60;6.20;;;;;;;;;;5073713;28;20439;-68
2021/01/18 07:43:41;;;;;;;11.83;5.70;;;;;;;;;;5072685;28;20545;-66
2021/01/18 07:46:25;;;;;;;13.10;6.57;;;;;;;;;;5072729;28;20447;-67
2021/01/18 07:48:54;;;;;;;8.43;5.10;;;;;;;;;;5072316;28;20496;-69
2021/01/18 07:51:24;;;;;;;10.03;6.90;;;;;;;;;;5073815;28;20819;-69
2021/01/18 07:53:50;;;;;;;10.30;6.10;;;;;;;;;;5069832;28;20426;-70
2021/01/18 07:56:25;;;;;;;9.50;6.13;;;;;;;;;;5072756;28;20901;-70
2021/01/18 07:58:58;;;;;;;6.80;5.90;;;;;;;;;;5065057;28;20880;-69
2021/01/18 08:01:31;;;;;;;12.70;5.80;;;;;;;;;;5071460;28;20429;-69
2021/01/18 08:04:19;;;;;;;11.00;5.50;;;;;;;;;;5072117;28;20473;-68
2021/01/18 08:07:03;;;;;;;9.00;5.57;;;;;;;;;;5069382;28;20434;-69
2021/01/18 08:09:29;;;;;;;9.80;6.60;;;;;;;;;;5066244;28;20804;-68
2021/01/18 08:12:14;;;;;;;8.13;5.80;;;;;;;;;;5072468;28;20419;-69
2021/01/18 08:14:48;;;;;;;11.33;5.87;;;;;;;;;;5071715;28;20431;-68
2021/01/18 08:17:17;;;;;;;12.10;7.20;;;;;;;;;;5069677;28;20404;-68
2021/01/18 08:20:02;;;;;;;7.90;5.77;;;;;;;;;;5071378;28;20442;-69
2021/01/18 08:22:29;;;;;;;10.57;4.90;;;;;;;;;;5071907;28;20409;-69
2021/01/18 08:24:55;;;;;;;14.03;6.40;;;;;;;;;;5070135;28;20478;-69
2021/01/18 08:27:41;;;;;;;9.40;5.30;;;;;;;;;;5072490;28;20412;-69
2021/01/18 08:30:27;;;;;;;6.30;4.77;;;;;;;;;;5070107;28;20420;-69
2021/01/18 08:32:53;;;;;;;10.23;5.30;;;;;;;;;;5052870;28;20437;-67
2021/01/18 08:35:22;;;;;;;13.93;6.63;;;;;;;;;;5069714;28;20427;-67
2021/01/18 08:37:59;;;;;;;9.77;6.07;;;;;;;;;;5071688;28;20413;-68
2021/01/18 08:40:32;;;;;;;7.17;4.73;;;;;;;;;;5071031;28;20427;-67
2021/01/18 08:42:58;;;;;;;8.32;5.07;;;;;;;;;;5071694;28;20446;-68
2021/01/18 08:45:27;;;;;;;8.47;5.27;;;;;;;;;;5069870;28;20473;-67
2021/01/18 08:47:53;;;;;;;13.70;6.20;;;;;;;;;;5072334;28;20429;-68
2021/01/18 08:50:19;;;;;;;7.27;5.47;;;;;;;;;;5070438;28;20422;-68
2021/01/18 08:52:46;;;;;;;8.77;5.00;;;;;;;;;;5072580;28;20415;-68
2021/01/18 08:55:30;;;;;;;10.53;5.47;;;;;;;;;;5071195;28;20439;-68
2021/01/18 08:57:56;;;;;;;14.07;5.30;;;;;;;;;;5066180;28;20462;-68
2021/01/18 09:00:22;;;;;;;6.23;4.33;;;;;;;;;;5071059;28;20424;-68
2021/01/18 09:02:49;;;;;;;10.70;5.50;;;;;;;;;;5062686;28;20416;-67
2021/01/18 09:05:17;;;;;;;9.17;4.90;;;;;;;;;;5070575;28;20451;-68
2021/01/18 09:07:44;;;;;;;13.50;4.87;;;;;;;;;;5068452;28;20794;-68
2021/01/18 09:10:16;;;;;;;11.90;5.68;;;;;;;;;;5065321;28;20467;-70
2021/01/18 09:12:43;;;;;;;7.80;4.27;;;;;;;;;;5060318;28;20224;-68
2021/01/18 09:15:10;;;;;;;8.67;4.50;;;;;;;;;;5065805;28;20917;-68
2021/01/18 09:17:36;;;;;;;7.57;4.53;;;;;;;;;;5082341;28;20485;-66
2021/01/18 09:20:04;;;;;;;6.33;4.07;;;;;;;;;;5067992;28;20420;-67
2021/01/18 09:22:30;;;;;;;9.23;3.90;;;;;;;;;;5068978;28;20423;-66
2021/01/18 09:24:56;;;;;;;7.03;4.27;;;;;;;;;;5070556;28;20509;-66
2021/01/18 09:27:24;;;;;;;10.90;4.80;;;;;;;;;;5069384;28;20969;-68
2021/01/18 09:30:08;;;;;;;8.20;4.87;;;;;;;;;;5070441;28;21051;-66
2021/01/18 09:32:37;;;;;;;7.50;4.27;;;;;;;;;;5072084;28;20409;-68
2021/01/18 09:35:08;;;;;;;6.20;4.13;;;;;;;;;;5067939;28;20754;-66
2021/01/18 09:37:34;;;;;;;7.00;4.23;;;;;;;;;;5070988;28;20821;-66
2021/01/18 09:40:07;;;;;;;6.80;3.80;;;;;;;;;;5074148;28;20991;-67
2021/01/18 09:42:33;;;;;;;6.97;3.53;;;;;;;;;;5074327;28;20780;-66
2021/01/18 09:44:59;;;;;;;5.30;3.37;;;;;;;;;;5069128;28;20460;-66
2021/01/18 09:47:26;;;;;;;7.03;3.97;;;;;;;;;;5069784;28;20477;-68
2021/01/18 09:49:52;;;;;;;11.33;3.97;;;;;;;;;;5074057;28;20942;-67
2021/01/18 09:52:18;;;;;;;7.13;4.47;;;;;;;;;;5074590;28;20407;-67
2021/01/18 09:54:47;;;;;;;5.80;3.70;;;;;;;;;;5073914;28;20414;-66
2021/01/18 09:57:15;;;;;;;5.17;3.47;;;;;;;;;;5074582;28;20424;-67
2021/01/18 09:59:41;;;;;;;6.77;3.80;;;;;;;;;;5073767;28;20979;-66
2021/01/18 10:02:11;;;;;;;7.00;3.87;;;;;;;;;;5073387;28;20762;-67
2021/01/18 10:04:39;;;;;;;6.30;4.57;;;;;;;;;;5074480;28;20458;-67
2021/01/18 10:07:06;;;;;;;12.30;4.37;;;;;;;;;;5073812;28;20434;-67
2021/01/18 10:09:34;;;;;;;6.13;4.07;;;;;;;;;;5071935;28;20453;-67
2021/01/18 10:12:00;;;;;;;5.67;3.57;;;;;;;;;;5067068;28;20909;-68
2021/01/18 10:14:28;;;;;;;5.13;3.57;;;;;;;;;;5070376;28;20430;-67
2021/01/18 10:16:57;;;;;;;7.00;4.00;;;;;;;;;;5071083;28;20918;-67
2021/01/18 10:19:23;;;;;;;5.20;3.33;;;;;;;;;;5073438;28;20502;-67
2021/01/18 10:21:49;;;;;;;7.97;3.73;;;;;;;;;;5066278;28;20432;-67
2021/01/18 10:24:28;;;;;;;6.27;3.70;;;;;;;;;;5074143;28;20473;-67
2021/01/18 10:27:09;;;;;;;4.67;3.73;;;;;;;;;;5065970;28;20445;-68
2021/01/18 10:29:35;;;;;;;4.60;3.03;;;;;;;;;;5073927;28;20428;-68
2021/01/18 10:32:03;;;;;;;5.00;2.93;;;;;;;;;;5071858;28;20419;-68
2021/01/18 10:34:30;;;;;;;6.97;3.50;;;;;;;;;;5073540;28;20422;-68
2021/01/18 10:36:57;;;;;;;7.73;3.57;;;;;;;;;;5071316;28;20430;-68
2021/01/18 10:39:29;;;;;;;7.63;3.73;;;;;;;;;;5052805;28;20436;-67
2021/01/18 10:42:02;;;;;;;9.57;4.33;;;;;;;;;;5066295;28;20428;-67
2021/01/18 10:44:28;;;;;;;6.63;3.53;;;;;;;;;;5072054;28;20488;-67
2021/01/18 10:46:54;;;;;;;5.57;3.63;;;;;;;;;;5072095;28;20422;-67
2021/01/18 10:49:27;;;;;;;7.57;3.90;;;;;;;;;;5075156;28;20439;-68
2021/01/18 10:52:01;;;;;;;6.90;3.90;;;;;;;;;;5069284;28;20456;-68
2021/01/18 10:54:28;;;;;;;7.70;3.93;;;;;;;;;;5070662;28;20234;-68
2021/01/18 10:56:55;;;;;;;6.60;4.97;;;;;;;;;;5071153;28;20815;-68
2021/01/18 10:59:21;;;;;;;9.80;5.27;;;;;;;;;;5073075;28;20452;-68
2021/01/18 11:02:02;;;;;;;11.43;4.67;;;;;;;;;;5068205;28;20430;-68
2021/01/18 11:04:29;;;;;;;6.33;3.47;;;;;;;;;;5069025;28;20455;-67
2021/01/18 11:06:58;;;;;;;9.03;4.80;;;;;;;;;;5071646;28;20904;-67
2021/01/18 11:09:31;;;;;;;6.13;3.87;;;;;;;;;;5070651;28;20434;-68
2021/01/18 11:11:58;;;;;;;5.60;3.60;;;;;;;;;;5072229;28;20834;-68
2021/01/18 11:14:24;;;;;;;7.53;4.30;;;;;;;;;;5071938;28;20426;-65
2021/01/18 11:17:16;;;;;;;7.70;4.73;;;;;;;;;;5068462;28;20181;-68
2021/01/18 11:19:50;;;;;;;6.00;4.07;;;;;;;;;;5070875;28;20953;-71
2021/01/18 11:22:16;;;;;;;5.13;3.83;;;;;;;;;;5070356;28;20422;-69
2021/01/18 11:24:42;;;;;;;9.80;3.80;;;;;;;;;;5070650;28;20569;-71
2021/01/18 11:27:08;;;;;;;4.23;3.00;;;;;;;;;;5069751;28;20911;-70
2021/01/18 11:29:34;;;;;;;6.87;3.97;;;;;;;;;;5071680;28;20442;-70
2021/01/18 11:32:00;;;;;;;4.00;3.20;;;;;;;;;;5071863;28;20534;-70
2021/01/18 11:34:26;;;;;;;7.10;4.00;;;;;;;;;;5071093;28;20451;-70
2021/01/18 11:36:52;;;;;;;6.80;3.67;;;;;;;;;;5065599;28;20438;-68
2021/01/18 11:39:18;;;;;;;9.30;3.70;;;;;;;;;;5069196;28;20438;-70
2021/01/18 11:41:44;;;;;;;5.37;3.33;;;;;;;;;;5071258;28;20435;-68
2021/01/18 11:44:10;;;;;;;8.73;4.13;;;;;;;;;;5068701;28;20413;-72
2021/01/18 11:46:36;;;;;;;6.47;4.10;;;;;;;;;;5068920;28;20505;-69
2021/01/18 11:49:03;;;;;;;6.60;3.10;;;;;;;;;;5066306;28;20460;-68
2021/01/18 11:51:29;;;;;;;9.13;4.00;;;;;;;;;;5063206;28;20448;-68
2021/01/18 11:53:55;;;;;;;11.57;4.30;;;;;;;;;;5063674;28;20412;-70
2021/01/18 11:56:28;;;;;;;6.63;3.40;;;;;;;;;;5067080;28;20480;-68
2021/01/18 11:58:54;;;;;;;8.13;3.30;;;;;;;;;;5066223;28;20217;-69
2021/01/18 12:01:20;;;;;;;8.80;3.97;;;;;;;;;;5062274;28;20516;-68
2021/01/18 12:03:46;;;;;;;6.03;3.83;;;;;;;;;;5070543;28;20268;-70
2021/01/18 12:06:12;;;;;;;4.60;2.60;;;;;;;;;;5063548;28;20521;-71
2021/01/18 12:08:38;;;;;;;11.43;4.10;;;;;;;;;;5061253;28;20515;-70
2021/01/18 12:11:04;;;;;;;5.17;3.63;;;;;;;;;;5067221;28;20462;-71
2021/01/18 12:13:30;;;;;;;5.67;2.93;;;;;;;;;;5068724;28;20553;-71
2021/01/18 12:15:56;;;;;;;5.27;2.97;;;;;;;;;;5064703;28;20798;-71
2021/01/18 12:18:23;;;;;;;5.70;2.63;;;;;;;;;;5059596;28;20554;-71
2021/01/18 12:20:49;;;;;;;5.23;3.00;;;;;;;;;;5064372;28;20462;-70
2021/01/18 12:23:18;;;;;;;6.73;3.07;;;;;;;;;;5071873;28;20868;-71
2021/01/18 12:25:44;;;;;;;7.70;3.70;;;;;;;;;;5069238;28;20533;-71
2021/01/18 12:28:10;;;;;;;8.67;3.50;;;;;;;;;;5071179;28;20443;-71
2021/01/18 12:30:37;;;;;;;4.60;3.07;;;;;;;;;;5067338;28;20431;-71
2021/01/18 12:33:02;;;;;;;4.70;2.93;;;;;;;;;;5070563;28;20427;-72
2021/01/18 12:35:28;;;;;;;6.00;3.23;;;;;;;;;;5068576;28;20432;-72
2021/01/18 12:37:54;;;;;;;3.80;2.50;;;;;;;;;;5069379;28;20458;-71
2021/01/18 12:40:20;;;;;;;4.53;2.50;;;;;;;;;;5071863;28;20406;-71
2021/01/18 12:42:47;;;;;;;4.17;2.47;;;;;;;;;;5069436;28;20427;-71
2021/01/18 12:45:17;;;;;;;6.77;3.20;;;;;;;;;;5070623;28;20485;-72
2021/01/18 12:47:44;;;;;;;4.43;2.90;;;;;;;;;;5067862;28;20596;-71
2021/01/18 12:50:10;;;;;;;6.90;3.47;;;;;;;;;;5067341;28;20427;-71
2021/01/18 12:52:41;;;;;;;12.37;3.33;;;;;;;;;;5069098;28;20436;-72
2021/01/18 12:55:07;;;;;;;7.33;2.77;;;;;;;;;;5071149;28;20561;-71
2021/01/18 12:57:33;;;;;;;7.40;3.47;;;;;;;;;;5070669;28;20476;-69
2021/01/18 12:59:59;;;;;;;4.20;2.78;;;;;;;;;;5069699;28;20448;-70
2021/01/18 13:02:25;;;;;;;5.90;3.50;;;;;;;;;;5070328;28;20434;-72
2021/01/18 13:04:52;;;;;;;5.77;2.67;;;;;;;;;;5070803;28;20528;-73
2021/01/18 13:07:18;;;;;;;7.33;3.30;;;;;;;;;;5071612;28;20496;-71
2021/01/18 13:09:44;;;;;;;6.13;2.90;;;;;;;;;;5069345;28;20492;-72
2021/01/18 13:12:10;;;;;;;4.30;2.83;;;;;;;;;;5070989;28;20430;-71
2021/01/18 13:14:36;;;;;;;7.07;3.35;;;;;;;;;;5070533;28;20518;-70
2021/01/18 13:17:04;;;;;;;9.23;3.17;;;;;;;;;;5070754;28;20669;-72
2021/01/18 13:19:30;;;;;;;4.45;3.08;;;;;;;;;;5073401;28;20895;-72
2021/01/18 13:21:58;;;;;;;5.35;3.10;;;;;;;;;;5073631;28;20473;-71
2021/01/18 13:24:24;;;;;;;3.80;3.20;;;;;;;;;;5076389;28;20188;-69
2021/01/18 13:26:50;;;;;;;7.00;3.60;;;;;;;;;;5074734;28;20414;-70
2021/01/18 13:29:16;;;;;;;4.87;3.33;;;;;;;;;;5076348;28;20259;-70
2021/01/18 13:31:43;;;;;;;4.73;2.60;;;;;;;;;;5072240;28;20424;-69
2021/01/18 13:34:10;;;;;;;5.87;2.93;;;;;;;;;;5072330;28;20437;-70
2021/01/18 13:36:36;;;;;;;5.03;3.03;;;;;;;;;;5074505;28;20414;-73
2021/01/18 13:39:02;;;;;;;8.43;3.50;;;;;;;;;;5073778;28;20478;-70
2021/01/18 13:41:28;;;;;;;6.80;3.00;;;;;;;;;;5072046;28;20427;-69
2021/01/18 13:43:54;;;;;;;6.33;2.83;;;;;;;;;;5071994;28;20507;-71
2021/01/18 13:46:21;;;;;;;8.50;3.67;;;;;;;;;;5072116;28;20466;-73
2021/01/18 13:48:48;;;;;;;8.13;3.60;;;;;;;;;;5073641;28;20471;-72
2021/01/18 13:51:14;;;;;;;4.93;3.53;;;;;;;;;;5072847;28;20422;-69
2021/01/18 13:53:41;;;;;;;7.87;3.60;;;;;;;;;;5073208;28;20447;-71
2021/01/18 13:56:07;;;;;;;6.13;2.70;;;;;;;;;;5074995;28;20431;-72
2021/01/18 13:58:33;;;;;;;5.60;3.23;;;;;;;;;;5072376;28;20462;-70
2021/01/18 14:00:59;;;;;;;5.03;3.27;;;;;;;;;;5072309;28;20497;-71
2021/01/18 14:03:25;;;;;;;6.93;4.23;;;;;;;;;;5060245;28;20433;-72
2021/01/18 14:05:51;;;;;;;6.17;3.23;;;;;;;;;;5066587;28;20465;-73
2021/01/18 14:08:19;;;;;;;7.73;3.30;;;;;;;;;;5074866;28;20795;-71
2021/01/18 14:10:49;;;;;;;7.70;3.50;;;;;;;;;;5070987;28;20511;-72
2021/01/18 14:13:15;;;;;;;5.03;4.07;;;;;;;;;;5073445;28;20173;-70
2021/01/18 14:15:41;;;;;;;6.55;3.80;;;;;;;;;;5073704;28;20519;-69
2021/01/18 14:18:07;;;;;;;8.97;4.23;;;;;;;;;;5077519;28;20230;-69
2021/01/18 14:20:33;;;;;;;5.55;3.47;;;;;;;;;;5074064;28;20426;-71
2021/01/18 14:22:59;;;;;;;6.17;4.20;;;;;;;;;;5074623;28;20174;-69
2021/01/18 14:25:25;;;;;;;6.93;3.80;;;;;;;;;;5069656;28;20454;-72
2021/01/18 14:27:51;;;;;;;5.20;3.87;;;;;;;;;;5071566;28;20420;-72
2021/01/18 14:30:17;;;;;;;6.20;4.00;;;;;;;;;;5070109;28;20435;-72
2021/01/18 14:32:46;;;;;;;5.10;3.13;;;;;;;;;;5073330;28;20431;-72
2021/01/18 14:35:13;;;;;;;6.70;3.80;;;;;;;;;;5072678;28;20726;-72
2021/01/18 14:37:41;;;;;;;5.60;3.60;;;;;;;;;;5073995;28;20459;-71
2021/01/18 14:40:08;;;;;;;3.93;3.00;;;;;;;;;;5073107;28;20545;-73
2021/01/18 14:42:40;;;;;;;6.50;4.27;;;;;;;;;;5073269;28;20410;-72
2021/01/18 14:45:08;;;;;;;6.80;4.17;;;;;;;;;;5071543;28;20456;-74
2021/01/18 14:47:36;;;;;;;9.17;4.50;;;;;;;;;;5071317;28;20433;-71
2021/01/18 14:50:03;;;;;;;9.95;4.95;;;;;;;;;;5072078;28;20426;-70